sensor_id;sensor_type;location;lat;lon;timestamp;P1;durP1;ratioP1;P2;durP2;ratioP2
14100;SDS011;7127;49.372;8.166;2023-02-26T00:00:15;1.70;;;0.77;;
14100;SDS011;7127;49.372;8.166;2023-02-26T00:02:45;1.87;;;1.13;;
14100;SDS011;7127;49.372;8.166;2023-02-26T00:05:13;2.60;;;0.80;;
14100;SDS011;7127;49.372;8.166;2023-02-26T00:07:41;1.43;;;0.60;;
14100;SDS011;7127;49.372;8.166;2023-02-26T00:10:10;0.77;;;0.60;;
14100;SDS011;7127;49.372;8.166;2023-02-26T00:12:39;1.17;;;0.70;;
14100;SDS011;7127;49.372;8.166;2023-02-26T00:15:06;1.00;;;0.70;;
14100;SDS011;7127;49.372;8.166;2023-02-26T00:17:40;1.00;;;0.70;;
14100;SDS011;7127;49.372;8.166;2023-02-26T00:20:10;4.13;;;0.97;;
14100;SDS011;7127;49.372;8.166;2023-02-26T00:22:38;2.23;;;0.90;;
14100;SDS011;7127;49.372;8.166;2023-02-26T00:25:06;1.27;;;0.63;;
14100;SDS011;7127;49.372;8.166;2023-02-26T00:27:34;2.53;;;0.80;;
14100;SDS011;7127;49.372;8.166;2023-02-26T00:30:01;1.90;;;1.03;;
14100;SDS011;7127;49.372;8.166;2023-02-26T00:32:29;2.20;;;1.00;;
14100;SDS011;7127;49.372;8.166;2023-02-26T00:34:58;1.53;;;0.70;;
14100;SDS011;7127;49.372;8.166;2023-02-26T00:37:31;2.20;;;0.77;;
14100;SDS011;7127;49.372;8.166;2023-02-26T00:40:20;1.10;;;0.93;;
14100;SDS011;7127;49.372;8.166;2023-02-26T00:42:49;1.57;;;1.00;;
14100;SDS011;7127;49.372;8.166;2023-02-26T00:45:16;3.53;;;1.00;;
14100;SDS011;7127;49.372;8.166;2023-02-26T00:47:46;1.03;;;0.70;;
14100;SDS011;7127;49.372;8.166;2023-02-26T00:50:19;1.60;;;0.70;;
14100;SDS011;7127;49.372;8.166;2023-02-26T00:52:52;1.60;;;0.80;;
14100;SDS011;7127;49.372;8.166;2023-02-26T00:55:28;2.33;;;0.80;;
14100;SDS011;7127;49.372;8.166;2023-02-26T00:57:55;1.33;;;0.80;;
14100;SDS011;7127;49.372;8.166;2023-02-26T01:00:22;1.00;;;0.70;;
14100;SDS011;7127;49.372;8.166;2023-02-26T01:02:49;1.50;;;0.70;;
14100;SDS011;7127;49.372;8.166;2023-02-26T01:05:17;1.70;;;0.83;;
14100;SDS011;7127;49.372;8.166;2023-02-26T01:07:46;1.37;;;0.80;;
14100;SDS011;7127;49.372;8.166;2023-02-26T01:10:20;1.70;;;0.57;;
14100;SDS011;7127;49.372;8.166;2023-02-26T01:12:47;1.53;;;0.80;;
14100;SDS011;7127;49.372;8.166;2023-02-26T01:15:15;1.10;;;0.60;;
14100;SDS011;7127;49.372;8.166;2023-02-26T01:17:43;1.33;;;0.93;;
14100;SDS011;7127;49.372;8.166;2023-02-26T01:20:15;0.90;;;0.80;;
14100;SDS011;7127;49.372;8.166;2023-02-26T01:22:47;2.97;;;1.03;;
14100;SDS011;7127;49.372;8.166;2023-02-26T01:25:21;1.80;;;1.20;;
14100;SDS011;7127;49.372;8.166;2023-02-26T01:27:52;1.70;;;0.77;;
14100;SDS011;7127;49.372;8.166;2023-02-26T01:30:21;2.17;;;0.87;;
14100;SDS011;7127;49.372;8.166;2023-02-26T01:32:50;1.70;;;1.00;;
14100;SDS011;7127;49.372;8.166;2023-02-26T01:35:28;2.57;;;0.77;;
14100;SDS011;7127;49.372;8.166;2023-02-26T01:38:05;2.50;;;1.10;;
14100;SDS011;7127;49.372;8.166;2023-02-26T01:40:47;0.97;;;0.70;;
14100;SDS011;7127;49.372;8.166;2023-02-26T01:43:31;0.90;;;0.77;;
14100;SDS011;7127;49.372;8.166;2023-02-26T01:46:05;2.67;;;1.00;;
14100;SDS011;7127;49.372;8.166;2023-02-26T01:48:43;1.87;;;0.97;;
14100;SDS011;7127;49.372;8.166;2023-02-26T01:51:15;0.77;;;0.70;;
14100;SDS011;7127;49.372;8.166;2023-02-26T01:53:43;2.13;;;0.80;;
14100;SDS011;7127;49.372;8.166;2023-02-26T01:56:11;0.97;;;0.80;;
14100;SDS011;7127;49.372;8.166;2023-02-26T01:58:41;1.67;;;0.87;;
14100;SDS011;7127;49.372;8.166;2023-02-26T02:01:09;2.60;;;1.30;;
14100;SDS011;7127;49.372;8.166;2023-02-26T02:03:37;0.90;;;0.80;;
14100;SDS011;7127;49.372;8.166;2023-02-26T02:06:07;1.40;;;0.80;;
14100;SDS011;7127;49.372;8.166;2023-02-26T02:08:36;1.70;;;1.10;;
14100;SDS011;7127;49.372;8.166;2023-02-26T02:11:06;3.07;;;0.97;;
14100;SDS011;7127;49.372;8.166;2023-02-26T02:13:37;2.23;;;1.10;;
14100;SDS011;7127;49.372;8.166;2023-02-26T02:16:19;2.73;;;1.00;;
14100;SDS011;7127;49.372;8.166;2023-02-26T02:18:54;2.23;;;0.90;;
14100;SDS011;7127;49.372;8.166;2023-02-26T02:24:34;1.73;;;0.93;;
14100;SDS011;7127;49.372;8.166;2023-02-26T02:27:16;2.50;;;0.83;;
14100;SDS011;7127;49.372;8.166;2023-02-26T02:30:14;1.97;;;0.83;;
14100;SDS011;7127;49.372;8.166;2023-02-26T02:33:00;2.73;;;1.03;;
14100;SDS011;7127;49.372;8.166;2023-02-26T02:35:31;1.67;;;0.90;;
14100;SDS011;7127;49.372;8.166;2023-02-26T02:38:04;2.63;;;1.20;;
14100;SDS011;7127;49.372;8.166;2023-02-26T02:40:35;1.60;;;0.87;;
14100;SDS011;7127;49.372;8.166;2023-02-26T02:43:07;1.83;;;0.80;;
14100;SDS011;7127;49.372;8.166;2023-02-26T02:45:39;0.90;;;0.77;;
14100;SDS011;7127;49.372;8.166;2023-02-26T02:48:11;2.03;;;0.83;;
14100;SDS011;7127;49.372;8.166;2023-02-26T02:50:42;1.27;;;0.90;;
14100;SDS011;7127;49.372;8.166;2023-02-26T02:53:13;1.30;;;0.80;;
14100;SDS011;7127;49.372;8.166;2023-02-26T02:55:45;0.73;;;0.73;;
14100;SDS011;7127;49.372;8.166;2023-02-26T02:58:17;4.80;;;1.40;;
14100;SDS011;7127;49.372;8.166;2023-02-26T03:00:48;3.20;;;1.00;;
14100;SDS011;7127;49.372;8.166;2023-02-26T03:03:20;1.70;;;0.80;;
14100;SDS011;7127;49.372;8.166;2023-02-26T03:05:53;1.40;;;0.87;;
14100;SDS011;7127;49.372;8.166;2023-02-26T03:08:20;1.90;;;0.90;;
14100;SDS011;7127;49.372;8.166;2023-02-26T03:10:49;1.23;;;0.87;;
14100;SDS011;7127;49.372;8.166;2023-02-26T03:13:17;1.70;;;0.90;;
14100;SDS011;7127;49.372;8.166;2023-02-26T03:15:47;2.53;;;1.13;;
14100;SDS011;7127;49.372;8.166;2023-02-26T03:18:26;1.33;;;0.80;;
14100;SDS011;7127;49.372;8.166;2023-02-26T03:21:07;2.83;;;1.20;;
14100;SDS011;7127;49.372;8.166;2023-02-26T03:23:39;1.40;;;0.80;;
14100;SDS011;7127;49.372;8.166;2023-02-26T03:26:12;1.63;;;0.93;;
14100;SDS011;7127;49.372;8.166;2023-02-26T03:28:45;2.27;;;1.00;;
14100;SDS011;7127;49.372;8.166;2023-02-26T03:31:19;1.43;;;0.80;;
14100;SDS011;7127;49.372;8.166;2023-02-26T03:33:53;1.20;;;0.80;;
14100;SDS011;7127;49.372;8.166;2023-02-26T03:36:24;3.40;;;0.97;;
14100;SDS011;7127;49.372;8.166;2023-02-26T03:38:57;2.10;;;1.17;;
14100;SDS011;7127;49.372;8.166;2023-02-26T03:41:31;1.30;;;0.90;;
14100;SDS011;7127;49.372;8.166;2023-02-26T03:44:04;1.83;;;0.80;;
14100;SDS011;7127;49.372;8.166;2023-02-26T03:46:37;2.70;;;0.93;;
14100;SDS011;7127;49.372;8.166;2023-02-26T03:49:10;2.73;;;0.80;;
14100;SDS011;7127;49.372;8.166;2023-02-26T03:51:39;1.10;;;0.77;;
14100;SDS011;7127;49.372;8.166;2023-02-26T03:54:08;1.90;;;0.90;;
14100;SDS011;7127;49.372;8.166;2023-02-26T03:56:40;1.73;;;0.70;;
14100;SDS011;7127;49.372;8.166;2023-02-26T03:59:10;1.13;;;0.53;;
14100;SDS011;7127;49.372;8.166;2023-02-26T04:01:39;2.60;;;1.00;;
14100;SDS011;7127;49.372;8.166;2023-02-26T04:04:11;1.97;;;0.70;;
14100;SDS011;7127;49.372;8.166;2023-02-26T04:06:42;1.10;;;0.70;;
14100;SDS011;7127;49.372;8.166;2023-02-26T04:09:10;2.07;;;0.90;;
14100;SDS011;7127;49.372;8.166;2023-02-26T04:11:37;1.10;;;0.80;;
14100;SDS011;7127;49.372;8.166;2023-02-26T04:14:05;2.43;;;1.13;;
14100;SDS011;7127;49.372;8.166;2023-02-26T04:16:32;3.03;;;1.07;;
14100;SDS011;7127;49.372;8.166;2023-02-26T04:18:58;2.90;;;0.90;;
14100;SDS011;7127;49.372;8.166;2023-02-26T04:21:27;1.87;;;1.20;;
14100;SDS011;7127;49.372;8.166;2023-02-26T04:23:54;2.60;;;1.00;;
14100;SDS011;7127;49.372;8.166;2023-02-26T04:26:20;1.63;;;0.97;;
14100;SDS011;7127;49.372;8.166;2023-02-26T04:28:47;2.03;;;1.10;;
14100;SDS011;7127;49.372;8.166;2023-02-26T04:31:14;1.17;;;1.00;;
14100;SDS011;7127;49.372;8.166;2023-02-26T04:33:41;1.67;;;0.90;;
14100;SDS011;7127;49.372;8.166;2023-02-26T04:36:08;2.47;;;1.23;;
14100;SDS011;7127;49.372;8.166;2023-02-26T04:38:37;1.30;;;0.83;;
14100;SDS011;7127;49.372;8.166;2023-02-26T04:41:04;2.83;;;1.23;;
14100;SDS011;7127;49.372;8.166;2023-02-26T04:43:31;1.60;;;1.20;;
14100;SDS011;7127;49.372;8.166;2023-02-26T04:45:58;2.47;;;1.13;;
14100;SDS011;7127;49.372;8.166;2023-02-26T04:48:25;2.53;;;1.30;;
14100;SDS011;7127;49.372;8.166;2023-02-26T04:50:52;1.37;;;0.83;;
14100;SDS011;7127;49.372;8.166;2023-02-26T04:53:19;2.33;;;1.10;;
14100;SDS011;7127;49.372;8.166;2023-02-26T04:55:48;1.67;;;1.10;;
14100;SDS011;7127;49.372;8.166;2023-02-26T04:58:15;1.17;;;0.87;;
14100;SDS011;7127;49.372;8.166;2023-02-26T05:00:42;3.23;;;1.20;;
14100;SDS011;7127;49.372;8.166;2023-02-26T05:03:09;1.53;;;1.10;;
14100;SDS011;7127;49.372;8.166;2023-02-26T05:05:37;1.17;;;1.00;;
14100;SDS011;7127;49.372;8.166;2023-02-26T05:08:04;2.80;;;1.20;;
14100;SDS011;7127;49.372;8.166;2023-02-26T05:10:31;1.70;;;0.83;;
14100;SDS011;7127;49.372;8.166;2023-02-26T05:12:59;2.47;;;1.20;;
14100;SDS011;7127;49.372;8.166;2023-02-26T05:15:26;1.53;;;1.00;;
14100;SDS011;7127;49.372;8.166;2023-02-26T05:17:52;2.33;;;0.97;;
14100;SDS011;7127;49.372;8.166;2023-02-26T05:20:19;1.77;;;1.03;;
14100;SDS011;7127;49.372;8.166;2023-02-26T05:22:46;5.87;;;1.23;;
14100;SDS011;7127;49.372;8.166;2023-02-26T05:25:13;2.40;;;1.30;;
14100;SDS011;7127;49.372;8.166;2023-02-26T05:27:40;3.60;;;1.30;;
14100;SDS011;7127;49.372;8.166;2023-02-26T05:30:10;1.97;;;1.13;;
14100;SDS011;7127;49.372;8.166;2023-02-26T05:32:39;1.87;;;1.00;;
14100;SDS011;7127;49.372;8.166;2023-02-26T05:35:07;3.97;;;1.47;;
14100;SDS011;7127;49.372;8.166;2023-02-26T05:37:34;1.30;;;1.00;;
14100;SDS011;7127;49.372;8.166;2023-02-26T05:40:01;3.13;;;1.17;;
14100;SDS011;7127;49.372;8.166;2023-02-26T05:42:29;2.43;;;1.37;;
14100;SDS011;7127;49.372;8.166;2023-02-26T05:44:56;5.10;;;1.57;;
14100;SDS011;7127;49.372;8.166;2023-02-26T05:47:24;3.80;;;1.30;;
14100;SDS011;7127;49.372;8.166;2023-02-26T05:49:51;2.23;;;1.27;;
14100;SDS011;7127;49.372;8.166;2023-02-26T05:52:18;2.63;;;1.47;;
14100;SDS011;7127;49.372;8.166;2023-02-26T05:54:45;2.50;;;1.10;;
14100;SDS011;7127;49.372;8.166;2023-02-26T05:57:12;4.40;;;1.40;;
14100;SDS011;7127;49.372;8.166;2023-02-26T05:59:38;2.67;;;1.20;;
14100;SDS011;7127;49.372;8.166;2023-02-26T06:02:05;2.40;;;1.40;;
14100;SDS011;7127;49.372;8.166;2023-02-26T06:04:34;2.13;;;1.10;;
14100;SDS011;7127;49.372;8.166;2023-02-26T06:07:01;1.53;;;1.00;;
14100;SDS011;7127;49.372;8.166;2023-02-26T06:09:28;1.30;;;1.10;;
14100;SDS011;7127;49.372;8.166;2023-02-26T06:11:55;1.40;;;1.20;;
14100;SDS011;7127;49.372;8.166;2023-02-26T06:14:22;2.60;;;1.13;;
14100;SDS011;7127;49.372;8.166;2023-02-26T06:16:48;1.10;;;1.00;;
14100;SDS011;7127;49.372;8.166;2023-02-26T06:19:15;3.17;;;1.20;;
14100;SDS011;7127;49.372;8.166;2023-02-26T06:21:44;1.63;;;1.30;;
14100;SDS011;7127;49.372;8.166;2023-02-26T06:24:11;2.13;;;1.57;;
14100;SDS011;7127;49.372;8.166;2023-02-26T06:26:38;2.50;;;1.50;;
14100;SDS011;7127;49.372;8.166;2023-02-26T06:29:05;2.50;;;1.50;;
14100;SDS011;7127;49.372;8.166;2023-02-26T06:31:32;3.10;;;1.50;;
14100;SDS011;7127;49.372;8.166;2023-02-26T06:33:59;2.53;;;1.53;;
14100;SDS011;7127;49.372;8.166;2023-02-26T06:36:26;2.00;;;1.50;;
14100;SDS011;7127;49.372;8.166;2023-02-26T06:38:54;2.40;;;1.60;;
14100;SDS011;7127;49.372;8.166;2023-02-26T06:41:21;2.90;;;1.50;;
14100;SDS011;7127;49.372;8.166;2023-02-26T06:43:48;2.33;;;1.50;;
14100;SDS011;7127;49.372;8.166;2023-02-26T06:46:15;1.87;;;1.20;;
14100;SDS011;7127;49.372;8.166;2023-02-26T06:48:42;3.07;;;1.63;;
14100;SDS011;7127;49.372;8.166;2023-02-26T06:51:09;2.40;;;1.40;;
14100;SDS011;7127;49.372;8.166;2023-02-26T06:53:35;3.13;;;1.53;;
14100;SDS011;7127;49.372;8.166;2023-02-26T06:56:04;1.87;;;1.50;;
14100;SDS011;7127;49.372;8.166;2023-02-26T06:58:32;2.17;;;1.43;;
14100;SDS011;7127;49.372;8.166;2023-02-26T07:00:59;2.90;;;1.43;;
14100;SDS011;7127;49.372;8.166;2023-02-26T07:03:26;3.60;;;1.33;;
14100;SDS011;7127;49.372;8.166;2023-02-26T07:05:53;2.20;;;1.00;;
14100;SDS011;7127;49.372;8.166;2023-02-26T07:08:20;1.93;;;1.10;;
14100;SDS011;7127;49.372;8.166;2023-02-26T07:10:48;2.97;;;1.60;;
14100;SDS011;7127;49.372;8.166;2023-02-26T07:13:17;2.83;;;1.43;;
14100;SDS011;7127;49.372;8.166;2023-02-26T07:15:44;1.77;;;1.47;;
14100;SDS011;7127;49.372;8.166;2023-02-26T07:18:10;3.07;;;1.23;;
14100;SDS011;7127;49.372;8.166;2023-02-26T07:20:37;1.30;;;0.97;;
14100;SDS011;7127;49.372;8.166;2023-02-26T07:23:04;1.20;;;1.00;;
14100;SDS011;7127;49.372;8.166;2023-02-26T07:25:31;3.60;;;1.60;;
14100;SDS011;7127;49.372;8.166;2023-02-26T07:27:59;2.60;;;1.40;;
14100;SDS011;7127;49.372;8.166;2023-02-26T07:30:27;2.17;;;1.10;;
14100;SDS011;7127;49.372;8.166;2023-02-26T07:32:55;1.87;;;1.23;;
14100;SDS011;7127;49.372;8.166;2023-02-26T07:35:22;1.77;;;1.20;;
14100;SDS011;7127;49.372;8.166;2023-02-26T07:37:49;3.10;;;1.27;;
14100;SDS011;7127;49.372;8.166;2023-02-26T07:40:16;1.10;;;1.00;;
14100;SDS011;7127;49.372;8.166;2023-02-26T07:42:43;1.77;;;1.00;;
14100;SDS011;7127;49.372;8.166;2023-02-26T07:45:10;2.07;;;1.27;;
14100;SDS011;7127;49.372;8.166;2023-02-26T07:47:38;2.40;;;1.40;;
14100;SDS011;7127;49.372;8.166;2023-02-26T07:50:05;2.73;;;1.63;;
14100;SDS011;7127;49.372;8.166;2023-02-26T07:52:32;3.30;;;1.37;;
14100;SDS011;7127;49.372;8.166;2023-02-26T07:54:59;2.17;;;1.40;;
14100;SDS011;7127;49.372;8.166;2023-02-26T07:57:26;6.07;;;1.53;;
14100;SDS011;7127;49.372;8.166;2023-02-26T07:59:53;4.90;;;1.63;;
14100;SDS011;7127;49.372;8.166;2023-02-26T08:02:20;4.43;;;1.67;;
14100;SDS011;7127;49.372;8.166;2023-02-26T08:04:48;3.67;;;1.30;;
14100;SDS011;7127;49.372;8.166;2023-02-26T08:07:15;1.83;;;1.00;;
14100;SDS011;7127;49.372;8.166;2023-02-26T08:09:42;2.77;;;1.53;;
14100;SDS011;7127;49.372;8.166;2023-02-26T08:12:09;2.33;;;1.10;;
14100;SDS011;7127;49.372;8.166;2023-02-26T08:14:36;2.40;;;1.40;;
14100;SDS011;7127;49.372;8.166;2023-02-26T08:17:05;1.37;;;1.13;;
14100;SDS011;7127;49.372;8.166;2023-02-26T08:19:32;1.77;;;1.13;;
14100;SDS011;7127;49.372;8.166;2023-02-26T08:22:01;1.57;;;1.10;;
14100;SDS011;7127;49.372;8.166;2023-02-26T08:24:28;2.60;;;1.47;;
14100;SDS011;7127;49.372;8.166;2023-02-26T08:26:55;3.43;;;1.80;;
14100;SDS011;7127;49.372;8.166;2023-02-26T08:29:22;3.67;;;1.40;;
14100;SDS011;7127;49.372;8.166;2023-02-26T08:31:49;2.30;;;1.20;;
14100;SDS011;7127;49.372;8.166;2023-02-26T08:34:16;4.63;;;1.43;;
14100;SDS011;7127;49.372;8.166;2023-02-26T08:36:43;1.67;;;1.20;;
14100;SDS011;7127;49.372;8.166;2023-02-26T08:39:12;2.10;;;1.37;;
14100;SDS011;7127;49.372;8.166;2023-02-26T08:41:38;3.87;;;1.20;;
14100;SDS011;7127;49.372;8.166;2023-02-26T08:44:05;2.13;;;1.27;;
14100;SDS011;7127;49.372;8.166;2023-02-26T08:46:32;2.00;;;1.10;;
14100;SDS011;7127;49.372;8.166;2023-02-26T08:48:59;1.70;;;1.20;;
14100;SDS011;7127;49.372;8.166;2023-02-26T08:51:26;1.77;;;1.27;;
14100;SDS011;7127;49.372;8.166;2023-02-26T08:53:53;2.20;;;1.30;;
14100;SDS011;7127;49.372;8.166;2023-02-26T08:56:22;2.43;;;1.23;;
14100;SDS011;7127;49.372;8.166;2023-02-26T08:58:51;1.83;;;1.07;;
14100;SDS011;7127;49.372;8.166;2023-02-26T09:01:19;1.93;;;1.17;;
14100;SDS011;7127;49.372;8.166;2023-02-26T09:03:46;2.00;;;0.90;;
14100;SDS011;7127;49.372;8.166;2023-02-26T09:06:17;1.80;;;1.03;;
14100;SDS011;7127;49.372;8.166;2023-02-26T09:08:53;2.10;;;1.07;;
14100;SDS011;7127;49.372;8.166;2023-02-26T09:11:24;2.33;;;1.40;;
14100;SDS011;7127;49.372;8.166;2023-02-26T09:13:54;1.30;;;1.20;;
14100;SDS011;7127;49.372;8.166;2023-02-26T09:18:58;2.60;;;1.17;;
14100;SDS011;7127;49.372;8.166;2023-02-26T09:21:27;1.77;;;1.30;;
14100;SDS011;7127;49.372;8.166;2023-02-26T09:26:38;4.13;;;1.20;;
14100;SDS011;7127;49.372;8.166;2023-02-26T09:29:05;1.63;;;1.10;;
14100;SDS011;7127;49.372;8.166;2023-02-26T09:31:32;2.07;;;1.23;;
14100;SDS011;7127;49.372;8.166;2023-02-26T09:33:59;1.97;;;1.10;;
14100;SDS011;7127;49.372;8.166;2023-02-26T09:36:26;1.70;;;1.23;;
14100;SDS011;7127;49.372;8.166;2023-02-26T09:38:55;2.77;;;1.07;;
14100;SDS011;7127;49.372;8.166;2023-02-26T09:41:22;1.47;;;1.00;;
14100;SDS011;7127;49.372;8.166;2023-02-26T09:43:57;2.03;;;1.30;;
14100;SDS011;7127;49.372;8.166;2023-02-26T09:46:39;1.43;;;1.00;;
14100;SDS011;7127;49.372;8.166;2023-02-26T09:49:15;1.20;;;0.87;;
14100;SDS011;7127;49.372;8.166;2023-02-26T09:51:47;1.93;;;1.17;;
14100;SDS011;7127;49.372;8.166;2023-02-26T09:54:19;2.63;;;0.90;;
14100;SDS011;7127;49.372;8.166;2023-02-26T09:56:49;2.33;;;1.27;;
14100;SDS011;7127;49.372;8.166;2023-02-26T09:59:19;1.53;;;0.87;;
14100;SDS011;7127;49.372;8.166;2023-02-26T10:01:47;1.73;;;1.00;;
14100;SDS011;7127;49.372;8.166;2023-02-26T10:04:23;1.60;;;1.20;;
14100;SDS011;7127;49.372;8.166;2023-02-26T10:07:01;1.50;;;0.80;;
14100;SDS011;7127;49.372;8.166;2023-02-26T10:09:40;2.30;;;1.03;;
14100;SDS011;7127;49.372;8.166;2023-02-26T10:12:16;0.93;;;0.70;;
14100;SDS011;7127;49.372;8.166;2023-02-26T10:14:48;0.80;;;0.80;;
14100;SDS011;7127;49.372;8.166;2023-02-26T10:17:21;1.93;;;1.00;;
14100;SDS011;7127;49.372;8.166;2023-02-26T10:19:52;0.73;;;0.73;;
14100;SDS011;7127;49.372;8.166;2023-02-26T10:22:25;1.20;;;0.70;;
14100;SDS011;7127;49.372;8.166;2023-02-26T10:24:57;0.97;;;0.83;;
14100;SDS011;7127;49.372;8.166;2023-02-26T10:27:34;0.93;;;0.80;;
14100;SDS011;7127;49.372;8.166;2023-02-26T10:30:12;0.93;;;0.73;;
14100;SDS011;7127;49.372;8.166;2023-02-26T10:32:49;1.70;;;0.70;;
14100;SDS011;7127;49.372;8.166;2023-02-26T10:35:23;1.70;;;0.60;;
14100;SDS011;7127;49.372;8.166;2023-02-26T10:37:55;1.33;;;0.73;;
14100;SDS011;7127;49.372;8.166;2023-02-26T10:40:26;1.13;;;1.00;;
14100;SDS011;7127;49.372;8.166;2023-02-26T10:42:58;1.17;;;0.80;;
14100;SDS011;7127;49.372;8.166;2023-02-26T10:45:41;1.30;;;0.70;;
14100;SDS011;7127;49.372;8.166;2023-02-26T10:48:23;0.70;;;0.70;;
14100;SDS011;7127;49.372;8.166;2023-02-26T10:50:58;0.70;;;0.70;;
14100;SDS011;7127;49.372;8.166;2023-02-26T10:53:31;1.30;;;0.70;;
14100;SDS011;7127;49.372;8.166;2023-02-26T10:55:59;1.33;;;0.73;;
14100;SDS011;7127;49.372;8.166;2023-02-26T10:58:30;0.70;;;0.60;;
14100;SDS011;7127;49.372;8.166;2023-02-26T11:00:59;1.63;;;0.80;;
14100;SDS011;7127;49.372;8.166;2023-02-26T11:03:28;1.30;;;1.00;;
14100;SDS011;7127;49.372;8.166;2023-02-26T11:05:58;0.87;;;0.63;;
14100;SDS011;7127;49.372;8.166;2023-02-26T11:08:29;1.03;;;0.67;;
14100;SDS011;7127;49.372;8.166;2023-02-26T11:10:59;0.90;;;0.67;;
14100;SDS011;7127;49.372;8.166;2023-02-26T11:13:28;1.03;;;0.77;;
14100;SDS011;7127;49.372;8.166;2023-02-26T11:15:57;0.73;;;0.73;;
14100;SDS011;7127;49.372;8.166;2023-02-26T11:18:28;0.93;;;0.70;;
14100;SDS011;7127;49.372;8.166;2023-02-26T11:20:57;1.60;;;1.00;;
14100;SDS011;7127;49.372;8.166;2023-02-26T11:23:25;2.00;;;0.83;;
14100;SDS011;7127;49.372;8.166;2023-02-26T11:25:57;1.00;;;0.90;;
14100;SDS011;7127;49.372;8.166;2023-02-26T11:28:30;1.00;;;0.83;;
14100;SDS011;7127;49.372;8.166;2023-02-26T11:31:02;0.40;;;0.40;;
14100;SDS011;7127;49.372;8.166;2023-02-26T11:33:33;1.43;;;0.70;;
14100;SDS011;7127;49.372;8.166;2023-02-26T11:36:05;0.67;;;0.60;;
14100;SDS011;7127;49.372;8.166;2023-02-26T11:38:34;0.93;;;0.80;;
14100;SDS011;7127;49.372;8.166;2023-02-26T11:41:02;2.33;;;0.77;;
14100;SDS011;7127;49.372;8.166;2023-02-26T11:43:36;1.63;;;0.70;;
14100;SDS011;7127;49.372;8.166;2023-02-26T11:46:10;1.30;;;0.80;;
14100;SDS011;7127;49.372;8.166;2023-02-26T11:48:39;1.27;;;1.00;;
14100;SDS011;7127;49.372;8.166;2023-02-26T11:51:12;1.73;;;0.70;;
14100;SDS011;7127;49.372;8.166;2023-02-26T11:53:41;1.13;;;0.70;;
14100;SDS011;7127;49.372;8.166;2023-02-26T11:56:14;1.33;;;0.67;;
14100;SDS011;7127;49.372;8.166;2023-02-26T11:58:49;1.53;;;0.90;;
14100;SDS011;7127;49.372;8.166;2023-02-26T12:01:20;0.83;;;0.67;;
14100;SDS011;7127;49.372;8.166;2023-02-26T12:04:01;0.70;;;0.60;;
14100;SDS011;7127;49.372;8.166;2023-02-26T12:06:29;1.33;;;0.77;;
14100;SDS011;7127;49.372;8.166;2023-02-26T12:08:56;1.10;;;0.70;;
14100;SDS011;7127;49.372;8.166;2023-02-26T12:11:30;0.83;;;0.50;;
14100;SDS011;7127;49.372;8.166;2023-02-26T12:14:30;0.40;;;0.40;;
14100;SDS011;7127;49.372;8.166;2023-02-26T12:20:12;1.23;;;0.73;;
14100;SDS011;7127;49.372;8.166;2023-02-26T12:22:47;1.10;;;0.80;;
14100;SDS011;7127;49.372;8.166;2023-02-26T12:25:25;0.60;;;0.60;;
14100;SDS011;7127;49.372;8.166;2023-02-26T12:34:45;0.50;;;0.37;;
14100;SDS011;7127;49.372;8.166;2023-02-26T12:37:46;0.50;;;0.50;;
14100;SDS011;7127;49.372;8.166;2023-02-26T12:43:26;0.60;;;0.40;;
14100;SDS011;7127;49.372;8.166;2023-02-26T12:46:06;0.97;;;0.80;;
14100;SDS011;7127;49.372;8.166;2023-02-26T12:48:53;0.40;;;0.40;;
14100;SDS011;7127;49.372;8.166;2023-02-26T12:51:42;2.10;;;0.67;;
14100;SDS011;7127;49.372;8.166;2023-02-26T12:54:39;0.47;;;0.40;;
14100;SDS011;7127;49.372;8.166;2023-02-26T12:57:19;1.23;;;0.73;;
14100;SDS011;7127;49.372;8.166;2023-02-26T13:00:18;1.10;;;0.60;;
14100;SDS011;7127;49.372;8.166;2023-02-26T13:06:04;1.00;;;0.50;;
14100;SDS011;7127;49.372;8.166;2023-02-26T13:08:50;0.60;;;0.57;;
14100;SDS011;7127;49.372;8.166;2023-02-26T13:11:26;1.20;;;0.90;;
14100;SDS011;7127;49.372;8.166;2023-02-26T13:14:11;1.20;;;0.80;;
14100;SDS011;7127;49.372;8.166;2023-02-26T13:16:56;1.00;;;0.60;;
14100;SDS011;7127;49.372;8.166;2023-02-26T13:19:33;0.60;;;0.43;;
14100;SDS011;7127;49.372;8.166;2023-02-26T13:22:11;0.50;;;0.50;;
14100;SDS011;7127;49.372;8.166;2023-02-26T13:24:44;0.93;;;0.47;;
14100;SDS011;7127;49.372;8.166;2023-02-26T13:27:13;0.93;;;0.67;;
14100;SDS011;7127;49.372;8.166;2023-02-26T13:29:44;0.60;;;0.60;;
14100;SDS011;7127;49.372;8.166;2023-02-26T13:32:15;1.97;;;0.70;;
14100;SDS011;7127;49.372;8.166;2023-02-26T13:34:47;1.30;;;0.80;;
14100;SDS011;7127;49.372;8.166;2023-02-26T13:37:36;1.10;;;0.80;;
14100;SDS011;7127;49.372;8.166;2023-02-26T13:43:23;1.70;;;0.77;;
14100;SDS011;7127;49.372;8.166;2023-02-26T13:46:15;0.90;;;0.60;;
14100;SDS011;7127;49.372;8.166;2023-02-26T13:48:51;0.93;;;0.60;;
14100;SDS011;7127;49.372;8.166;2023-02-26T13:51:28;1.20;;;0.80;;
14100;SDS011;7127;49.372;8.166;2023-02-26T13:53:59;0.50;;;0.50;;
14100;SDS011;7127;49.372;8.166;2023-02-26T13:59:44;1.57;;;0.87;;
14100;SDS011;7127;49.372;8.166;2023-02-26T14:05:06;0.80;;;0.50;;
14100;SDS011;7127;49.372;8.166;2023-02-26T14:07:52;0.80;;;0.60;;
14100;SDS011;7127;49.372;8.166;2023-02-26T14:10:35;1.30;;;0.57;;
14100;SDS011;7127;49.372;8.166;2023-02-26T14:13:13;0.50;;;0.50;;
14100;SDS011;7127;49.372;8.166;2023-02-26T14:15:48;1.13;;;0.63;;
14100;SDS011;7127;49.372;8.166;2023-02-26T14:18:25;0.63;;;0.50;;
14100;SDS011;7127;49.372;8.166;2023-02-26T14:24:13;0.40;;;0.40;;
14100;SDS011;7127;49.372;8.166;2023-02-26T14:26:43;0.60;;;0.50;;
14100;SDS011;7127;49.372;8.166;2023-02-26T14:29:15;0.60;;;0.50;;
14100;SDS011;7127;49.372;8.166;2023-02-26T14:31:49;1.50;;;0.50;;
14100;SDS011;7127;49.372;8.166;2023-02-26T14:34:26;0.77;;;0.63;;
14100;SDS011;7127;49.372;8.166;2023-02-26T14:36:57;1.17;;;0.63;;
14100;SDS011;7127;49.372;8.166;2023-02-26T14:39:27;0.43;;;0.40;;
14100;SDS011;7127;49.372;8.166;2023-02-26T14:41:58;4.77;;;0.80;;
14100;SDS011;7127;49.372;8.166;2023-02-26T14:44:31;1.27;;;0.40;;
14100;SDS011;7127;49.372;8.166;2023-02-26T14:47:02;0.63;;;0.40;;
14100;SDS011;7127;49.372;8.166;2023-02-26T14:49:31;1.00;;;0.60;;
14100;SDS011;7127;49.372;8.166;2023-02-26T14:52:09;1.00;;;0.40;;
14100;SDS011;7127;49.372;8.166;2023-02-26T14:55:02;0.60;;;0.20;;
14100;SDS011;7127;49.372;8.166;2023-02-26T14:57:45;0.53;;;0.50;;
14100;SDS011;7127;49.372;8.166;2023-02-26T15:00:24;1.23;;;0.40;;
14100;SDS011;7127;49.372;8.166;2023-02-26T15:06:05;0.30;;;0.30;;
14100;SDS011;7127;49.372;8.166;2023-02-26T15:08:45;0.60;;;0.50;;
14100;SDS011;7127;49.372;8.166;2023-02-26T15:17:14;0.57;;;0.50;;
14100;SDS011;7127;49.372;8.166;2023-02-26T15:19:55;1.07;;;0.50;;
14100;SDS011;7127;49.372;8.166;2023-02-26T15:22:35;1.53;;;0.60;;
14100;SDS011;7127;49.372;8.166;2023-02-26T15:25:17;2.30;;;0.40;;
14100;SDS011;7127;49.372;8.166;2023-02-26T15:27:50;0.33;;;0.33;;
14100;SDS011;7127;49.372;8.166;2023-02-26T15:30:18;0.63;;;0.60;;
14100;SDS011;7127;49.372;8.166;2023-02-26T15:32:47;0.60;;;0.50;;
14100;SDS011;7127;49.372;8.166;2023-02-26T15:35:14;0.50;;;0.30;;
14100;SDS011;7127;49.372;8.166;2023-02-26T15:37:47;1.13;;;0.50;;
14100;SDS011;7127;49.372;8.166;2023-02-26T15:40:15;0.60;;;0.50;;
14100;SDS011;7127;49.372;8.166;2023-02-26T15:42:43;0.60;;;0.60;;
14100;SDS011;7127;49.372;8.166;2023-02-26T15:45:14;0.40;;;0.40;;
14100;SDS011;7127;49.372;8.166;2023-02-26T15:47:49;0.67;;;0.47;;
14100;SDS011;7127;49.372;8.166;2023-02-26T15:50:20;0.73;;;0.53;;
14100;SDS011;7127;49.372;8.166;2023-02-26T15:52:50;0.80;;;0.50;;
14100;SDS011;7127;49.372;8.166;2023-02-26T15:55:20;0.63;;;0.50;;
14100;SDS011;7127;49.372;8.166;2023-02-26T15:57:47;0.73;;;0.47;;
14100;SDS011;7127;49.372;8.166;2023-02-26T16:00:18;0.87;;;0.40;;
14100;SDS011;7127;49.372;8.166;2023-02-26T16:05:45;0.67;;;0.57;;
14100;SDS011;7127;49.372;8.166;2023-02-26T16:08:14;0.73;;;0.50;;
14100;SDS011;7127;49.372;8.166;2023-02-26T16:10:42;0.70;;;0.50;;
14100;SDS011;7127;49.372;8.166;2023-02-26T16:13:10;0.70;;;0.60;;